sensor_id;sensor_type;location;lat;lon;timestamp;P1;durP1;ratioP1;P2;durP2;ratioP2
84644;SDS011;74874;48.072;11.688;2024-03-08T00:02:22;42.58;;;16.80;;
84644;SDS011;74874;48.072;11.688;2024-03-08T00:04:48;45.55;;;19.52;;
84644;SDS011;74874;48.072;11.688;2024-03-08T00:07:13;40.15;;;18.17;;
84644;SDS011;74874;48.072;11.688;2024-03-08T00:09:39;39.42;;;16.83;;
84644;SDS011;74874;48.072;11.688;2024-03-08T00:12:04;45.42;;;17.13;;
84644;SDS011;74874;48.072;11.688;2024-03-08T00:14:29;37.63;;;16.90;;
84644;SDS011;74874;48.072;11.688;2024-03-08T00:16:55;45.05;;;17.85;;
84644;SDS011;74874;48.072;11.688;2024-03-08T00:19:20;41.63;;;19.10;;
84644;SDS011;74874;48.072;11.688;2024-03-08T00:21:45;42.45;;;17.70;;
84644;SDS011;74874;48.072;11.688;2024-03-08T00:24:11;40.45;;;18.58;;
84644;SDS011;74874;48.072;11.688;2024-03-08T00:26:37;41.50;;;17.52;;
84644;SDS011;74874;48.072;11.688;2024-03-08T00:29:02;40.53;;;16.60;;
84644;SDS011;74874;48.072;11.688;2024-03-08T00:31:28;32.38;;;16.08;;
84644;SDS011;74874;48.072;11.688;2024-03-08T00:33:55;35.08;;;16.90;;
84644;SDS011;74874;48.072;11.688;2024-03-08T00:36:21;41.92;;;18.15;;
84644;SDS011;74874;48.072;11.688;2024-03-08T00:38:47;40.95;;;17.48;;
84644;SDS011;74874;48.072;11.688;2024-03-08T00:41:12;40.03;;;17.73;;
84644;SDS011;74874;48.072;11.688;2024-03-08T00:43:38;37.65;;;17.30;;
84644;SDS011;74874;48.072;11.688;2024-03-08T00:46:03;40.50;;;18.77;;
84644;SDS011;74874;48.072;11.688;2024-03-08T00:48:28;46.75;;;18.67;;
84644;SDS011;74874;48.072;11.688;2024-03-08T00:50:54;42.88;;;18.90;;
84644;SDS011;74874;48.072;11.688;2024-03-08T00:53:19;43.22;;;18.42;;
84644;SDS011;74874;48.072;11.688;2024-03-08T00:55:44;48.55;;;18.95;;
84644;SDS011;74874;48.072;11.688;2024-03-08T00:58:11;45.40;;;20.45;;
84644;SDS011;74874;48.072;11.688;2024-03-08T01:00:37;48.00;;;18.83;;
84644;SDS011;74874;48.072;11.688;2024-03-08T01:03:04;41.38;;;18.15;;
84644;SDS011;74874;48.072;11.688;2024-03-08T01:05:29;43.05;;;18.35;;
84644;SDS011;74874;48.072;11.688;2024-03-08T01:07:55;39.53;;;17.40;;
84644;SDS011;74874;48.072;11.688;2024-03-08T01:10:20;41.25;;;18.73;;
84644;SDS011;74874;48.072;11.688;2024-03-08T01:12:45;41.42;;;18.35;;
84644;SDS011;74874;48.072;11.688;2024-03-08T01:15:11;40.42;;;17.70;;
84644;SDS011;74874;48.072;11.688;2024-03-08T01:17:36;38.08;;;17.27;;
84644;SDS011;74874;48.072;11.688;2024-03-08T01:20:02;41.90;;;17.20;;
84644;SDS011;74874;48.072;11.688;2024-03-08T01:22:29;41.15;;;19.10;;
84644;SDS011;74874;48.072;11.688;2024-03-08T01:24:55;41.28;;;18.45;;
84644;SDS011;74874;48.072;11.688;2024-03-08T01:27:20;41.92;;;18.25;;
84644;SDS011;74874;48.072;11.688;2024-03-08T01:29:46;41.80;;;18.42;;
84644;SDS011;74874;48.072;11.688;2024-03-08T01:32:11;40.20;;;18.30;;
84644;SDS011;74874;48.072;11.688;2024-03-08T01:34:37;38.78;;;18.27;;
84644;SDS011;74874;48.072;11.688;2024-03-08T01:37:02;41.40;;;18.88;;
84644;SDS011;74874;48.072;11.688;2024-03-08T01:39:27;41.50;;;18.20;;
84644;SDS011;74874;48.072;11.688;2024-03-08T01:41:53;43.30;;;18.20;;
84644;SDS011;74874;48.072;11.688;2024-03-08T01:44:19;47.53;;;19.17;;
84644;SDS011;74874;48.072;11.688;2024-03-08T01:46:44;43.78;;;18.63;;
84644;SDS011;74874;48.072;11.688;2024-03-08T01:49:10;51.42;;;21.50;;
84644;SDS011;74874;48.072;11.688;2024-03-08T01:51:36;47.55;;;19.73;;
84644;SDS011;74874;48.072;11.688;2024-03-08T01:54:02;49.97;;;20.65;;
84644;SDS011;74874;48.072;11.688;2024-03-08T01:56:28;48.55;;;20.73;;
84644;SDS011;74874;48.072;11.688;2024-03-08T01:58:56;53.28;;;19.85;;
84644;SDS011;74874;48.072;11.688;2024-03-08T02:01:22;43.78;;;20.60;;
84644;SDS011;74874;48.072;11.688;2024-03-08T02:03:49;52.33;;;19.58;;
84644;SDS011;74874;48.072;11.688;2024-03-08T02:06:14;43.22;;;19.67;;
84644;SDS011;74874;48.072;11.688;2024-03-08T02:08:44;48.47;;;21.25;;
84644;SDS011;74874;48.072;11.688;2024-03-08T02:11:10;44.65;;;19.25;;
84644;SDS011;74874;48.072;11.688;2024-03-08T02:13:35;35.83;;;17.75;;
84644;SDS011;74874;48.072;11.688;2024-03-08T02:16:01;40.00;;;17.77;;
84644;SDS011;74874;48.072;11.688;2024-03-08T02:18:27;45.30;;;18.55;;
84644;SDS011;74874;48.072;11.688;2024-03-08T02:21:00;44.60;;;18.77;;
84644;SDS011;74874;48.072;11.688;2024-03-08T02:23:27;46.92;;;20.35;;
84644;SDS011;74874;48.072;11.688;2024-03-08T02:25:53;43.53;;;19.02;;
84644;SDS011;74874;48.072;11.688;2024-03-08T02:28:20;49.50;;;20.13;;
84644;SDS011;74874;48.072;11.688;2024-03-08T02:30:49;46.30;;;20.63;;
84644;SDS011;74874;48.072;11.688;2024-03-08T02:33:16;44.97;;;18.80;;
84644;SDS011;74874;48.072;11.688;2024-03-08T02:35:42;45.88;;;20.00;;
84644;SDS011;74874;48.072;11.688;2024-03-08T02:38:10;44.67;;;19.60;;
84644;SDS011;74874;48.072;11.688;2024-03-08T02:40:37;47.35;;;19.52;;
84644;SDS011;74874;48.072;11.688;2024-03-08T02:43:02;40.75;;;17.52;;
84644;SDS011;74874;48.072;11.688;2024-03-08T02:45:29;46.50;;;19.27;;
84644;SDS011;74874;48.072;11.688;2024-03-08T02:47:55;41.30;;;18.35;;
84644;SDS011;74874;48.072;11.688;2024-03-08T02:50:21;45.20;;;19.38;;
84644;SDS011;74874;48.072;11.688;2024-03-08T02:52:47;41.13;;;18.70;;
84644;SDS011;74874;48.072;11.688;2024-03-08T02:55:13;43.55;;;19.02;;
84644;SDS011;74874;48.072;11.688;2024-03-08T02:57:41;44.05;;;18.67;;
84644;SDS011;74874;48.072;11.688;2024-03-08T03:00:07;46.35;;;19.05;;
84644;SDS011;74874;48.072;11.688;2024-03-08T03:02:35;47.92;;;20.42;;
84644;SDS011;74874;48.072;11.688;2024-03-08T03:05:02;46.67;;;18.27;;
84644;SDS011;74874;48.072;11.688;2024-03-08T03:07:31;45.17;;;18.95;;
84644;SDS011;74874;48.072;11.688;2024-03-08T03:09:59;33.65;;;15.90;;
84644;SDS011;74874;48.072;11.688;2024-03-08T03:12:28;41.72;;;18.92;;
84644;SDS011;74874;48.072;11.688;2024-03-08T03:14:53;45.58;;;17.25;;
84644;SDS011;74874;48.072;11.688;2024-03-08T03:17:19;47.28;;;18.63;;
84644;SDS011;74874;48.072;11.688;2024-03-08T03:19:45;47.88;;;19.90;;
84644;SDS011;74874;48.072;11.688;2024-03-08T03:22:11;50.97;;;19.50;;
84644;SDS011;74874;48.072;11.688;2024-03-08T03:24:37;46.78;;;20.05;;
84644;SDS011;74874;48.072;11.688;2024-03-08T03:27:03;45.50;;;20.80;;
84644;SDS011;74874;48.072;11.688;2024-03-08T03:29:35;49.90;;;22.15;;
84644;SDS011;74874;48.072;11.688;2024-03-08T03:32:04;48.72;;;19.15;;
84644;SDS011;74874;48.072;11.688;2024-03-08T03:34:30;51.65;;;20.30;;
84644;SDS011;74874;48.072;11.688;2024-03-08T03:36:55;51.40;;;19.52;;
84644;SDS011;74874;48.072;11.688;2024-03-08T03:39:21;55.35;;;20.20;;
84644;SDS011;74874;48.072;11.688;2024-03-08T03:41:47;44.78;;;18.50;;
84644;SDS011;74874;48.072;11.688;2024-03-08T03:44:17;40.80;;;19.27;;
84644;SDS011;74874;48.072;11.688;2024-03-08T03:46:43;55.03;;;21.02;;
84644;SDS011;74874;48.072;11.688;2024-03-08T03:49:11;52.92;;;21.10;;
84644;SDS011;74874;48.072;11.688;2024-03-08T03:51:37;45.95;;;20.63;;
84644;SDS011;74874;48.072;11.688;2024-03-08T03:54:02;53.20;;;20.90;;
84644;SDS011;74874;48.072;11.688;2024-03-08T03:56:28;54.30;;;22.42;;
84644;SDS011;74874;48.072;11.688;2024-03-08T03:58:54;59.65;;;21.52;;
84644;SDS011;74874;48.072;11.688;2024-03-08T04:01:19;59.22;;;22.58;;
84644;SDS011;74874;48.072;11.688;2024-03-08T04:03:45;62.30;;;22.73;;
84644;SDS011;74874;48.072;11.688;2024-03-08T04:06:10;71.18;;;26.27;;
84644;SDS011;74874;48.072;11.688;2024-03-08T04:08:35;64.35;;;22.48;;
84644;SDS011;74874;48.072;11.688;2024-03-08T04:11:01;59.42;;;22.20;;
84644;SDS011;74874;48.072;11.688;2024-03-08T04:13:26;62.63;;;24.60;;
84644;SDS011;74874;48.072;11.688;2024-03-08T04:15:52;61.65;;;23.85;;
84644;SDS011;74874;48.072;11.688;2024-03-08T04:18:17;64.40;;;24.52;;
84644;SDS011;74874;48.072;11.688;2024-03-08T04:20:44;67.15;;;25.63;;
84644;SDS011;74874;48.072;11.688;2024-03-08T04:23:09;63.60;;;26.42;;
84644;SDS011;74874;48.072;11.688;2024-03-08T04:25:34;65.28;;;25.27;;
84644;SDS011;74874;48.072;11.688;2024-03-08T04:28:00;72.13;;;26.45;;
84644;SDS011;74874;48.072;11.688;2024-03-08T04:30:25;70.35;;;24.80;;
84644;SDS011;74874;48.072;11.688;2024-03-08T04:32:53;70.53;;;27.00;;
84644;SDS011;74874;48.072;11.688;2024-03-08T04:35:18;72.72;;;26.42;;
84644;SDS011;74874;48.072;11.688;2024-03-08T04:37:45;60.72;;;25.15;;
84644;SDS011;74874;48.072;11.688;2024-03-08T04:40:10;63.38;;;26.20;;
84644;SDS011;74874;48.072;11.688;2024-03-08T04:42:36;64.65;;;25.30;;
84644;SDS011;74874;48.072;11.688;2024-03-08T04:45:02;69.82;;;26.13;;
84644;SDS011;74874;48.072;11.688;2024-03-08T04:47:29;61.80;;;24.88;;
84644;SDS011;74874;48.072;11.688;2024-03-08T04:49:54;74.13;;;27.63;;
84644;SDS011;74874;48.072;11.688;2024-03-08T04:52:21;68.43;;;26.17;;
84644;SDS011;74874;48.072;11.688;2024-03-08T04:54:47;63.28;;;24.55;;
84644;SDS011;74874;48.072;11.688;2024-03-08T04:57:12;66.90;;;24.58;;
84644;SDS011;74874;48.072;11.688;2024-03-08T04:59:37;59.65;;;23.85;;
84644;SDS011;74874;48.072;11.688;2024-03-08T05:02:03;60.45;;;23.15;;
84644;SDS011;74874;48.072;11.688;2024-03-08T05:04:29;70.93;;;26.40;;
84644;SDS011;74874;48.072;11.688;2024-03-08T05:06:54;58.53;;;24.77;;
84644;SDS011;74874;48.072;11.688;2024-03-08T05:09:20;70.05;;;25.42;;
84644;SDS011;74874;48.072;11.688;2024-03-08T05:11:45;66.18;;;25.67;;
84644;SDS011;74874;48.072;11.688;2024-03-08T05:14:12;69.35;;;25.27;;
84644;SDS011;74874;48.072;11.688;2024-03-08T05:16:42;75.57;;;27.30;;
84644;SDS011;74874;48.072;11.688;2024-03-08T05:19:08;63.25;;;25.35;;
84644;SDS011;74874;48.072;11.688;2024-03-08T05:21:33;60.08;;;24.30;;
84644;SDS011;74874;48.072;11.688;2024-03-08T05:23:58;85.55;;;29.10;;
84644;SDS011;74874;48.072;11.688;2024-03-08T05:26:24;73.22;;;27.45;;
84644;SDS011;74874;48.072;11.688;2024-03-08T05:28:49;69.85;;;27.17;;
84644;SDS011;74874;48.072;11.688;2024-03-08T05:31:19;74.40;;;28.75;;
84644;SDS011;74874;48.072;11.688;2024-03-08T05:33:47;80.78;;;29.17;;
84644;SDS011;74874;48.072;11.688;2024-03-08T05:36:12;71.75;;;28.52;;
84644;SDS011;74874;48.072;11.688;2024-03-08T05:38:40;74.60;;;27.13;;
84644;SDS011;74874;48.072;11.688;2024-03-08T05:41:06;81.07;;;27.95;;
84644;SDS011;74874;48.072;11.688;2024-03-08T05:43:32;84.93;;;30.05;;
84644;SDS011;74874;48.072;11.688;2024-03-08T05:45:58;82.78;;;29.42;;
84644;SDS011;74874;48.072;11.688;2024-03-08T05:48:23;80.10;;;27.90;;
84644;SDS011;74874;48.072;11.688;2024-03-08T05:50:50;78.30;;;28.52;;
84644;SDS011;74874;48.072;11.688;2024-03-08T05:53:15;83.45;;;29.98;;
84644;SDS011;74874;48.072;11.688;2024-03-08T05:55:40;73.95;;;28.83;;
84644;SDS011;74874;48.072;11.688;2024-03-08T05:58:06;86.43;;;29.67;;
84644;SDS011;74874;48.072;11.688;2024-03-08T06:00:33;77.70;;;29.52;;
84644;SDS011;74874;48.072;11.688;2024-03-08T06:02:58;80.88;;;28.60;;
84644;SDS011;74874;48.072;11.688;2024-03-08T06:05:24;89.30;;;29.70;;
84644;SDS011;74874;48.072;11.688;2024-03-08T06:07:50;81.55;;;29.35;;
84644;SDS011;74874;48.072;11.688;2024-03-08T06:10:18;84.15;;;29.77;;
84644;SDS011;74874;48.072;11.688;2024-03-08T06:12:43;85.22;;;29.55;;
84644;SDS011;74874;48.072;11.688;2024-03-08T06:15:10;76.75;;;27.95;;
84644;SDS011;74874;48.072;11.688;2024-03-08T06:17:39;83.30;;;29.13;;
84644;SDS011;74874;48.072;11.688;2024-03-08T06:20:04;74.72;;;27.80;;
84644;SDS011;74874;48.072;11.688;2024-03-08T06:22:35;78.65;;;28.70;;
84644;SDS011;74874;48.072;11.688;2024-03-08T06:25:06;76.30;;;26.73;;
84644;SDS011;74874;48.072;11.688;2024-03-08T06:27:38;70.35;;;27.20;;
84644;SDS011;74874;48.072;11.688;2024-03-08T06:30:04;71.70;;;27.83;;
84644;SDS011;74874;48.072;11.688;2024-03-08T06:32:31;77.28;;;26.33;;
84644;SDS011;74874;48.072;11.688;2024-03-08T06:35:00;102.65;;;45.00;;
84644;SDS011;74874;48.072;11.688;2024-03-08T06:37:26;83.75;;;30.38;;
84644;SDS011;74874;48.072;11.688;2024-03-08T06:39:51;135.20;;;55.67;;
84644;SDS011;74874;48.072;11.688;2024-03-08T06:42:19;74.25;;;28.45;;
84644;SDS011;74874;48.072;11.688;2024-03-08T06:44:44;93.68;;;38.35;;
84644;SDS011;74874;48.072;11.688;2024-03-08T06:47:14;99.13;;;48.03;;
84644;SDS011;74874;48.072;11.688;2024-03-08T06:49:41;72.75;;;27.52;;
84644;SDS011;74874;48.072;11.688;2024-03-08T06:52:07;76.07;;;29.05;;
84644;SDS011;74874;48.072;11.688;2024-03-08T06:54:34;76.75;;;29.17;;
84644;SDS011;74874;48.072;11.688;2024-03-08T06:57:01;79.82;;;28.85;;
84644;SDS011;74874;48.072;11.688;2024-03-08T06:59:30;67.97;;;27.30;;
84644;SDS011;74874;48.072;11.688;2024-03-08T07:01:55;82.75;;;34.70;;
84644;SDS011;74874;48.072;11.688;2024-03-08T07:04:21;68.20;;;26.88;;
84644;SDS011;74874;48.072;11.688;2024-03-08T07:06:49;103.47;;;50.63;;
84644;SDS011;74874;48.072;11.688;2024-03-08T07:09:15;75.40;;;28.45;;
84644;SDS011;74874;48.072;11.688;2024-03-08T07:11:41;112.90;;;57.33;;
84644;SDS011;74874;48.072;11.688;2024-03-08T07:14:07;78.93;;;32.55;;
84644;SDS011;74874;48.072;11.688;2024-03-08T07:16:33;69.70;;;31.60;;
84644;SDS011;74874;48.072;11.688;2024-03-08T07:18:59;65.82;;;24.67;;
84644;SDS011;74874;48.072;11.688;2024-03-08T07:21:24;63.90;;;26.48;;
84644;SDS011;74874;48.072;11.688;2024-03-08T07:23:49;62.20;;;25.25;;
84644;SDS011;74874;48.072;11.688;2024-03-08T07:26:38;64.85;;;24.30;;
84644;SDS011;74874;48.072;11.688;2024-03-08T07:29:04;184.60;;;82.40;;
84644;SDS011;74874;48.072;11.688;2024-03-08T07:31:29;79.93;;;36.40;;
84644;SDS011;74874;48.072;11.688;2024-03-08T07:34:06;89.65;;;45.28;;
84644;SDS011;74874;48.072;11.688;2024-03-08T07:36:32;81.20;;;38.65;;
84644;SDS011;74874;48.072;11.688;2024-03-08T07:39:01;57.63;;;25.67;;
84644;SDS011;74874;48.072;11.688;2024-03-08T07:41:26;56.75;;;23.63;;
84644;SDS011;74874;48.072;11.688;2024-03-08T07:43:51;72.78;;;39.85;;
84644;SDS011;74874;48.072;11.688;2024-03-08T07:46:17;55.67;;;26.88;;
84644;SDS011;74874;48.072;11.688;2024-03-08T07:48:43;56.25;;;27.38;;
84644;SDS011;74874;48.072;11.688;2024-03-08T07:51:09;48.45;;;24.17;;
84644;SDS011;74874;48.072;11.688;2024-03-08T07:53:37;51.15;;;21.85;;
84644;SDS011;74874;48.072;11.688;2024-03-08T07:56:03;56.63;;;30.13;;
84644;SDS011;74874;48.072;11.688;2024-03-08T07:58:30;46.15;;;21.42;;
84644;SDS011;74874;48.072;11.688;2024-03-08T08:00:55;43.78;;;19.63;;
84644;SDS011;74874;48.072;11.688;2024-03-08T08:03:20;53.75;;;25.05;;
84644;SDS011;74874;48.072;11.688;2024-03-08T08:05:46;50.08;;;26.25;;
84644;SDS011;74874;48.072;11.688;2024-03-08T08:08:11;43.25;;;19.80;;
84644;SDS011;74874;48.072;11.688;2024-03-08T08:10:37;41.90;;;20.90;;
84644;SDS011;74874;48.072;11.688;2024-03-08T08:13:02;37.22;;;19.00;;
84644;SDS011;74874;48.072;11.688;2024-03-08T08:15:29;40.72;;;19.75;;
84644;SDS011;74874;48.072;11.688;2024-03-08T08:17:55;40.78;;;17.67;;
84644;SDS011;74874;48.072;11.688;2024-03-08T08:20:20;39.65;;;20.48;;
84644;SDS011;74874;48.072;11.688;2024-03-08T08:22:46;34.42;;;17.13;;
84644;SDS011;74874;48.072;11.688;2024-03-08T08:25:13;38.85;;;18.58;;
84644;SDS011;74874;48.072;11.688;2024-03-08T08:27:40;33.65;;;16.50;;
84644;SDS011;74874;48.072;11.688;2024-03-08T08:30:07;37.80;;;18.38;;
84644;SDS011;74874;48.072;11.688;2024-03-08T08:32:36;32.88;;;16.63;;
84644;SDS011;74874;48.072;11.688;2024-03-08T08:35:01;36.78;;;17.73;;
84644;SDS011;74874;48.072;11.688;2024-03-08T08:37:27;35.72;;;18.05;;
84644;SDS011;74874;48.072;11.688;2024-03-08T08:39:53;33.53;;;17.25;;
84644;SDS011;74874;48.072;11.688;2024-03-08T08:42:19;37.15;;;17.60;;
84644;SDS011;74874;48.072;11.688;2024-03-08T08:44:44;32.70;;;17.05;;
84644;SDS011;74874;48.072;11.688;2024-03-08T08:47:11;33.55;;;17.27;;
84644;SDS011;74874;48.072;11.688;2024-03-08T08:49:38;27.35;;;13.60;;
84644;SDS011;74874;48.072;11.688;2024-03-08T08:52:03;27.90;;;14.52;;
84644;SDS011;74874;48.072;11.688;2024-03-08T08:54:29;27.88;;;13.95;;
84644;SDS011;74874;48.072;11.688;2024-03-08T08:56:54;28.08;;;13.88;;
84644;SDS011;74874;48.072;11.688;2024-03-08T08:59:20;28.50;;;13.77;;
84644;SDS011;74874;48.072;11.688;2024-03-08T09:01:45;29.88;;;14.75;;
84644;SDS011;74874;48.072;11.688;2024-03-08T09:04:15;37.58;;;15.27;;
84644;SDS011;74874;48.072;11.688;2024-03-08T09:06:41;29.70;;;14.55;;
84644;SDS011;74874;48.072;11.688;2024-03-08T09:09:07;30.83;;;14.30;;
84644;SDS011;74874;48.072;11.688;2024-03-08T09:11:36;31.35;;;15.98;;
84644;SDS011;74874;48.072;11.688;2024-03-08T09:14:06;26.38;;;14.35;;
84644;SDS011;74874;48.072;11.688;2024-03-08T09:16:32;25.30;;;13.52;;
84644;SDS011;74874;48.072;11.688;2024-03-08T09:18:58;27.40;;;13.93;;
84644;SDS011;74874;48.072;11.688;2024-03-08T09:21:23;28.33;;;13.38;;
84644;SDS011;74874;48.072;11.688;2024-03-08T09:23:49;28.23;;;14.63;;
84644;SDS011;74874;48.072;11.688;2024-03-08T09:26:14;28.42;;;13.73;;
84644;SDS011;74874;48.072;11.688;2024-03-08T09:28:40;26.67;;;14.13;;
84644;SDS011;74874;48.072;11.688;2024-03-08T09:31:05;31.00;;;15.10;;
84644;SDS011;74874;48.072;11.688;2024-03-08T09:33:31;27.90;;;14.52;;
84644;SDS011;74874;48.072;11.688;2024-03-08T09:35:56;27.48;;;13.60;;
84644;SDS011;74874;48.072;11.688;2024-03-08T09:38:24;30.35;;;14.77;;
84644;SDS011;74874;48.072;11.688;2024-03-08T09:40:50;28.35;;;13.80;;
84644;SDS011;74874;48.072;11.688;2024-03-08T09:43:16;27.20;;;14.27;;
84644;SDS011;74874;48.072;11.688;2024-03-08T09:45:43;27.95;;;13.25;;
84644;SDS011;74874;48.072;11.688;2024-03-08T09:48:11;29.27;;;13.85;;
84644;SDS011;74874;48.072;11.688;2024-03-08T09:50:38;24.90;;;13.75;;
84644;SDS011;74874;48.072;11.688;2024-03-08T09:53:04;27.73;;;14.15;;
84644;SDS011;74874;48.072;11.688;2024-03-08T09:55:34;31.10;;;14.77;;
84644;SDS011;74874;48.072;11.688;2024-03-08T09:58:01;30.88;;;14.25;;
84644;SDS011;74874;48.072;11.688;2024-03-08T10:00:46;30.67;;;14.70;;
84644;SDS011;74874;48.072;11.688;2024-03-08T10:03:11;28.38;;;15.00;;
84644;SDS011;74874;48.072;11.688;2024-03-08T10:05:39;25.25;;;14.27;;
84644;SDS011;74874;48.072;11.688;2024-03-08T10:08:05;28.17;;;13.75;;
84644;SDS011;74874;48.072;11.688;2024-03-08T10:10:36;24.13;;;14.07;;
84644;SDS011;74874;48.072;11.688;2024-03-08T10:13:05;27.60;;;13.32;;
84644;SDS011;74874;48.072;11.688;2024-03-08T10:15:31;22.63;;;11.63;;
84644;SDS011;74874;48.072;11.688;2024-03-08T10:17:58;23.73;;;12.05;;
84644;SDS011;74874;48.072;11.688;2024-03-08T10:20:24;22.30;;;12.60;;
84644;SDS011;74874;48.072;11.688;2024-03-08T10:22:49;24.05;;;12.63;;
84644;SDS011;74874;48.072;11.688;2024-03-08T10:25:15;23.65;;;12.02;;
84644;SDS011;74874;48.072;11.688;2024-03-08T10:27:40;23.83;;;12.48;;
84644;SDS011;74874;48.072;11.688;2024-03-08T10:30:06;20.75;;;11.38;;
84644;SDS011;74874;48.072;11.688;2024-03-08T10:32:35;23.88;;;12.55;;
84644;SDS011;74874;48.072;11.688;2024-03-08T10:35:00;20.33;;;11.02;;
84644;SDS011;74874;48.072;11.688;2024-03-08T10:37:26;20.45;;;11.15;;
84644;SDS011;74874;48.072;11.688;2024-03-08T10:42:35;20.98;;;11.95;;
84644;SDS011;74874;48.072;11.688;2024-03-08T10:48:17;20.83;;;11.13;;
84644;SDS011;74874;48.072;11.688;2024-03-08T10:50:57;22.33;;;11.57;;
84644;SDS011;74874;48.072;11.688;2024-03-08T10:53:24;19.02;;;10.45;;
84644;SDS011;74874;48.072;11.688;2024-03-08T10:55:52;20.05;;;10.40;;
84644;SDS011;74874;48.072;11.688;2024-03-08T10:58:19;19.42;;;11.07;;
84644;SDS011;74874;48.072;11.688;2024-03-08T11:00:46;21.67;;;11.23;;
84644;SDS011;74874;48.072;11.688;2024-03-08T11:03:57;21.58;;;11.07;;
84644;SDS011;74874;48.072;11.688;2024-03-08T11:06:13;21.48;;;10.55;;
84644;SDS011;74874;48.072;11.688;2024-03-08T11:08:41;18.25;;;10.48;;
84644;SDS011;74874;48.072;11.688;2024-03-08T11:11:25;20.70;;;11.60;;
84644;SDS011;74874;48.072;11.688;2024-03-08T11:13:59;20.63;;;11.20;;
84644;SDS011;74874;48.072;11.688;2024-03-08T11:18:57;23.67;;;12.18;;
84644;SDS011;74874;48.072;11.688;2024-03-08T11:21:30;24.10;;;12.57;;
84644;SDS011;74874;48.072;11.688;2024-03-08T11:23:58;22.48;;;12.13;;
84644;SDS011;74874;48.072;11.688;2024-03-08T11:26:25;21.33;;;11.45;;
84644;SDS011;74874;48.072;11.688;2024-03-08T11:28:50;21.15;;;11.02;;
84644;SDS011;74874;48.072;11.688;2024-03-08T11:33:46;20.88;;;11.82;;
84644;SDS011;74874;48.072;11.688;2024-03-08T11:36:13;25.75;;;12.38;;
84644;SDS011;74874;48.072;11.688;2024-03-08T11:38:42;21.15;;;12.18;;
84644;SDS011;74874;48.072;11.688;2024-03-08T11:41:13;21.92;;;13.05;;
84644;SDS011;74874;48.072;11.688;2024-03-08T11:43:43;22.48;;;13.20;;
84644;SDS011;74874;48.072;11.688;2024-03-08T11:46:08;20.95;;;12.43;;
84644;SDS011;74874;48.072;11.688;2024-03-08T11:48:34;22.17;;;12.30;;
84644;SDS011;74874;48.072;11.688;2024-03-08T11:51:01;23.90;;;11.30;;
84644;SDS011;74874;48.072;11.688;2024-03-08T11:53:27;22.77;;;12.60;;
84644;SDS011;74874;48.072;11.688;2024-03-08T11:55:52;21.92;;;12.05;;
84644;SDS011;74874;48.072;11.688;2024-03-08T11:58:17;23.75;;;13.80;;
84644;SDS011;74874;48.072;11.688;2024-03-08T12:00:43;27.48;;;13.60;;
84644;SDS011;74874;48.072;11.688;2024-03-08T12:03:11;23.75;;;13.65;;
84644;SDS011;74874;48.072;11.688;2024-03-08T12:05:37;20.90;;;12.35;;
84644;SDS011;74874;48.072;11.688;2024-03-08T12:08:03;22.48;;;12.55;;
84644;SDS011;74874;48.072;11.688;2024-03-08T12:10:30;23.52;;;12.40;;
84644;SDS011;74874;48.072;11.688;2024-03-08T12:12:57;24.80;;;14.05;;
84644;SDS011;74874;48.072;11.688;2024-03-08T12:15:24;23.10;;;12.85;;
84644;SDS011;74874;48.072;11.688;2024-03-08T12:17:50;22.20;;;13.00;;
84644;SDS011;74874;48.072;11.688;2024-03-08T12:20:17;23.65;;;12.57;;
84644;SDS011;74874;48.072;11.688;2024-03-08T12:22:46;23.20;;;13.40;;
84644;SDS011;74874;48.072;11.688;2024-03-08T12:25:12;20.92;;;11.80;;
84644;SDS011;74874;48.072;11.688;2024-03-08T12:27:39;23.17;;;13.05;;
84644;SDS011;74874;48.072;11.688;2024-03-08T12:32:52;22.92;;;12.45;;
84644;SDS011;74874;48.072;11.688;2024-03-08T12:35:22;21.95;;;12.13;;
84644;SDS011;74874;48.072;11.688;2024-03-08T12:37:58;25.65;;;13.68;;
84644;SDS011;74874;48.072;11.688;2024-03-08T12:40:31;19.67;;;12.38;;
84644;SDS011;74874;48.072;11.688;2024-03-08T12:43:00;22.95;;;14.13;;
84644;SDS011;74874;48.072;11.688;2024-03-08T12:45:27;22.35;;;12.38;;
84644;SDS011;74874;48.072;11.688;2024-03-08T12:47:53;22.50;;;12.32;;
84644;SDS011;74874;48.072;11.688;2024-03-08T12:50:19;21.15;;;12.88;;
84644;SDS011;74874;48.072;11.688;2024-03-08T12:52:45;22.15;;;12.65;;
84644;SDS011;74874;48.072;11.688;2024-03-08T12:55:10;22.05;;;12.15;;
84644;SDS011;74874;48.072;11.688;2024-03-08T12:57:36;24.27;;;12.52;;
84644;SDS011;74874;48.072;11.688;2024-03-08T13:00:03;19.60;;;11.05;;
84644;SDS011;74874;48.072;11.688;2024-03-08T13:02:29;22.10;;;12.13;;
84644;SDS011;74874;48.072;11.688;2024-03-08T13:04:57;21.50;;;12.52;;
84644;SDS011;74874;48.072;11.688;2024-03-08T13:07:23;20.70;;;11.57;;
84644;SDS011;74874;48.072;11.688;2024-03-08T13:09:51;20.40;;;11.65;;
84644;SDS011;74874;48.072;11.688;2024-03-08T13:12:17;20.08;;;10.55;;
84644;SDS011;74874;48.072;11.688;2024-03-08T13:14:43;18.55;;;10.35;;
84644;SDS011;74874;48.072;11.688;2024-03-08T13:17:08;19.48;;;11.05;;
84644;SDS011;74874;48.072;11.688;2024-03-08T13:19:36;16.95;;;10.18;;
84644;SDS011;74874;48.072;11.688;2024-03-08T13:22:03;21.83;;;11.75;;
84644;SDS011;74874;48.072;11.688;2024-03-08T13:24:32;18.95;;;11.10;;
84644;SDS011;74874;48.072;11.688;2024-03-08T13:26:59;19.83;;;10.60;;
84644;SDS011;74874;48.072;11.688;2024-03-08T13:29:24;19.02;;;10.10;;
84644;SDS011;74874;48.072;11.688;2024-03-08T13:31:50;21.08;;;10.63;;
84644;SDS011;74874;48.072;11.688;2024-03-08T13:34:19;16.83;;;9.77;;
84644;SDS011;74874;48.072;11.688;2024-03-08T13:36:53;17.80;;;9.35;;
84644;SDS011;74874;48.072;11.688;2024-03-08T13:39:19;16.70;;;9.60;;
84644;SDS011;74874;48.072;11.688;2024-03-08T13:41:45;16.25;;;9.00;;
84644;SDS011;74874;48.072;11.688;2024-03-08T13:44:11;18.17;;;10.60;;
84644;SDS011;74874;48.072;11.688;2024-03-08T13:46:37;18.50;;;10.00;;
84644;SDS011;74874;48.072;11.688;2024-03-08T13:49:05;17.63;;;10.02;;
84644;SDS011;74874;48.072;11.688;2024-03-08T13:51:35;18.08;;;10.15;;
84644;SDS011;74874;48.072;11.688;2024-03-08T13:54:01;17.50;;;10.23;;
84644;SDS011;74874;48.072;11.688;2024-03-08T13:56:29;16.10;;;8.68;;
84644;SDS011;74874;48.072;11.688;2024-03-08T13:58:56;17.58;;;9.43;;
84644;SDS011;74874;48.072;11.688;2024-03-08T14:01:22;16.85;;;9.50;;
84644;SDS011;74874;48.072;11.688;2024-03-08T14:03:47;15.25;;;9.30;;
84644;SDS011;74874;48.072;11.688;2024-03-08T14:06:13;17.67;;;9.50;;
84644;SDS011;74874;48.072;11.688;2024-03-08T14:08:38;15.38;;;9.30;;
84644;SDS011;74874;48.072;11.688;2024-03-08T14:11:04;15.23;;;9.13;;
84644;SDS011;74874;48.072;11.688;2024-03-08T14:13:44;17.17;;;9.50;;
84644;SDS011;74874;48.072;11.688;2024-03-08T14:16:11;15.27;;;8.70;;
84644;SDS011;74874;48.072;11.688;2024-03-08T14:18:36;17.25;;;9.88;;
84644;SDS011;74874;48.072;11.688;2024-03-08T14:21:02;15.10;;;9.30;;